createdAt,value
2018-05-02T00:01:07.432Z,2.63
2018-05-02T00:03:34.998Z,3.67
2018-05-02T00:06:02.523Z,3.50
2018-05-02T00:08:30.054Z,3.60
2018-05-02T00:10:57.705Z,3.20
2018-05-02T00:15:57.761Z,2.70
2018-05-02T00:18:25.291Z,2.60
2018-05-02T00:20:52.801Z,2.90
2018-05-02T00:23:20.341Z,3.40
2018-05-02T00:25:47.857Z,2.67
2018-05-02T00:28:15.424Z,3.50
2018-05-02T00:30:42.946Z,3.60
2018-05-02T00:33:10.454Z,3.57
2018-05-02T00:35:38.004Z,3.73
2018-05-02T00:38:05.546Z,3.70
2018-05-02T00:40:33.090Z,3.60
2018-05-02T00:43:00.745Z,4.33
2018-05-02T00:45:28.306Z,4.30
2018-05-02T00:47:55.888Z,4.30
2018-05-02T00:50:23.361Z,5.20
2018-05-02T00:52:50.924Z,5.30
2018-05-02T00:55:18.621Z,4.10
2018-05-02T00:57:46.148Z,5.47
2018-05-02T01:00:13.744Z,6.40
2018-05-02T01:02:41.268Z,5.10
2018-05-02T01:05:08.788Z,4.97
2018-05-02T01:07:36.326Z,5.10
2018-05-02T01:10:03.855Z,6.17
2018-05-02T01:12:31.398Z,7.43
2018-05-02T01:14:58.942Z,5.63
2018-05-02T01:17:26.618Z,7.00
2018-05-02T01:19:54.114Z,5.90
2018-05-02T01:22:21.689Z,6.57
2018-05-02T01:24:49.420Z,7.60
2018-05-02T01:27:16.940Z,6.73
2018-05-02T01:29:44.466Z,7.37
2018-05-02T01:32:12.026Z,7.33
2018-05-02T01:34:39.550Z,6.83
2018-05-02T01:37:07.062Z,7.67
2018-05-02T01:39:34.601Z,7.50
2018-05-02T01:42:02.132Z,7.97
2018-05-02T01:44:29.790Z,7.77
2018-05-02T01:46:58.274Z,8.40
2018-05-02T01:49:25.801Z,8.30
2018-05-02T01:51:53.347Z,7.30
2018-05-02T01:54:20.910Z,8.67
2018-05-02T01:56:48.438Z,8.33
2018-05-02T01:59:15.951Z,9.20
2018-05-02T02:01:43.838Z,8.67
2018-05-02T02:04:11.357Z,8.70
2018-05-02T02:06:38.933Z,7.90
2018-05-02T02:09:06.465Z,9.27
2018-05-02T02:11:34.049Z,9.27
2018-05-02T02:14:01.581Z,9.07
2018-05-02T02:16:29.093Z,9.60
2018-05-02T02:18:56.698Z,8.93
2018-05-02T02:21:24.197Z,10.03
2018-05-02T02:23:51.893Z,9.20
2018-05-02T02:26:19.411Z,11.10
2018-05-02T02:28:46.925Z,9.67
2018-05-02T02:31:14.498Z,10.30
2018-05-02T02:33:42.063Z,10.50
2018-05-02T02:36:09.595Z,10.67
2018-05-02T02:38:37.150Z,10.80
2018-05-02T02:41:04.677Z,10.43
2018-05-02T02:43:32.227Z,10.67
2018-05-02T02:45:59.769Z,10.90
2018-05-02T02:48:27.285Z,11.40
2018-05-02T02:50:54.831Z,12.17
2018-05-02T02:53:22.358Z,12.67
2018-05-02T02:55:50.136Z,11.97
2018-05-02T02:58:17.666Z,12.33
2018-05-02T03:00:45.189Z,12.40
2018-05-02T03:03:12.742Z,11.47
2018-05-02T03:05:40.330Z,11.60
2018-05-02T03:08:07.863Z,10.80
2018-05-02T03:10:35.381Z,12.10
2018-05-02T03:13:02.926Z,11.87
2018-05-02T03:15:30.450Z,12.20
2018-05-02T03:17:57.990Z,11.20
2018-05-02T03:20:25.510Z,12.57
2018-05-02T03:22:53.065Z,12.27
2018-05-02T03:25:20.613Z,13.30
2018-05-02T03:27:48.598Z,14.40
2018-05-02T03:30:16.119Z,12.70
2018-05-02T03:32:43.649Z,12.57
2018-05-02T03:35:11.194Z,13.40
2018-05-02T03:37:38.709Z,14.23
2018-05-02T03:40:06.260Z,12.10
2018-05-02T03:42:33.840Z,13.53
2018-05-02T03:45:01.495Z,13.87
2018-05-02T03:47:29.009Z,14.33
2018-05-02T03:49:56.546Z,14.10
2018-05-02T03:52:24.085Z,14.70
2018-05-02T03:54:51.799Z,13.70
2018-05-02T03:57:19.453Z,14.83
2018-05-02T03:59:58.926Z,14.53
2018-05-02T04:02:38.325Z,15.57
2018-05-02T04:05:17.725Z,16.03
2018-05-02T04:07:45.265Z,15.97
2018-05-02T04:10:12.807Z,15.43
2018-05-02T04:12:40.372Z,16.50
2018-05-02T04:15:07.894Z,15.70
2018-05-02T04:17:35.454Z,16.07
2018-05-02T04:20:02.999Z,14.63
2018-05-02T04:22:30.571Z,15.60
2018-05-02T04:24:58.411Z,15.50
2018-05-02T04:27:25.925Z,15.00
2018-05-02T04:29:53.465Z,15.20
2018-05-02T04:32:20.985Z,15.63
2018-05-02T04:34:48.534Z,15.70
2018-05-02T04:37:16.061Z,15.23
2018-05-02T04:39:43.746Z,16.50
2018-05-02T04:42:11.270Z,15.77
2018-05-02T04:44:38.811Z,14.67
2018-05-02T04:47:06.366Z,15.27
2018-05-02T04:49:33.883Z,16.57
2018-05-02T04:52:01.425Z,15.23
2018-05-02T04:54:28.945Z,15.73
2018-05-02T04:56:56.488Z,14.90
2018-05-02T04:59:24.024Z,14.70
2018-05-02T05:01:51.623Z,14.70
2018-05-02T05:04:19.166Z,15.03
2018-05-02T05:06:46.704Z,14.50
2018-05-02T05:09:14.263Z,15.27
2018-05-02T05:11:41.785Z,14.47
2018-05-02T05:14:09.326Z,14.67
2018-05-02T05:16:36.849Z,13.87
2018-05-02T05:19:04.454Z,14.90
2018-05-02T05:21:31.979Z,13.30
2018-05-02T05:23:59.503Z,13.43
2018-05-02T05:26:27.064Z,14.40
2018-05-02T05:28:54.594Z,13.30
2018-05-02T05:31:22.162Z,13.90
2018-05-02T05:33:49.690Z,13.40
2018-05-02T05:36:17.222Z,12.60
2018-05-02T05:38:44.794Z,10.97
2018-05-02T05:41:12.313Z,11.20
2018-05-02T05:43:39.890Z,9.53
2018-05-02T05:46:07.410Z,11.00
2018-05-02T05:48:34.981Z,8.97
2018-05-02T05:51:02.519Z,9.90
2018-05-02T05:53:30.034Z,9.03
2018-05-02T05:55:58.101Z,10.20
2018-05-02T05:58:25.771Z,10.17
2018-05-02T06:00:53.375Z,9.87
2018-05-02T06:03:20.875Z,9.50
2018-05-02T06:05:48.414Z,9.97
2018-05-02T06:08:15.949Z,9.07
2018-05-02T06:10:43.651Z,9.30
2018-05-02T06:13:11.164Z,9.43
2018-05-02T06:15:38.692Z,9.23
2018-05-02T06:18:06.238Z,10.17
2018-05-02T06:20:34.677Z,8.90
2018-05-02T06:23:02.259Z,9.50
2018-05-02T06:25:29.807Z,9.87
2018-05-02T06:27:57.321Z,8.43
2018-05-02T06:30:24.893Z,9.27
2018-05-02T06:32:52.409Z,9.70
2018-05-02T06:35:19.926Z,9.10
2018-05-02T06:37:47.519Z,9.93
2018-05-02T06:40:15.050Z,10.70
2018-05-02T06:42:42.577Z,10.80
2018-05-02T06:45:10.123Z,9.73
2018-05-02T06:47:37.650Z,9.70
2018-05-02T06:50:05.213Z,9.63
2018-05-02T06:52:32.770Z,9.67
2018-05-02T06:55:00.294Z,11.10
2018-05-02T06:57:27.872Z,11.37
2018-05-02T06:59:55.394Z,11.37
2018-05-02T07:02:22.920Z,11.37
2018-05-02T07:04:50.874Z,10.80
2018-05-02T07:07:18.402Z,11.07
2018-05-02T07:09:45.931Z,11.47
2018-05-02T07:12:13.479Z,11.80
2018-05-02T07:14:41.003Z,10.03
2018-05-02T07:17:08.947Z,11.33
2018-05-02T07:19:36.457Z,9.47
2018-05-02T07:22:03.985Z,9.20
2018-05-02T07:24:31.571Z,9.20
2018-05-02T07:26:59.094Z,9.33
2018-05-02T07:29:26.629Z,8.83
2018-05-02T07:31:54.202Z,9.27
2018-05-02T07:34:21.729Z,9.10
2018-05-02T07:36:49.253Z,8.73
2018-05-02T07:39:16.814Z,8.47
2018-05-02T07:41:44.417Z,7.63
2018-05-02T07:44:11.880Z,8.50
2018-05-02T07:46:39.466Z,8.20
2018-05-02T07:49:07.010Z,7.90
2018-05-02T07:51:34.590Z,7.37
2018-05-02T07:54:02.122Z,6.97
2018-05-02T07:56:29.677Z,7.03
2018-05-02T07:58:57.625Z,7.03
2018-05-02T08:01:25.137Z,6.17
2018-05-02T08:03:52.653Z,6.07
2018-05-02T08:06:20.185Z,6.50
2018-05-02T08:08:47.697Z,6.83
2018-05-02T08:11:15.242Z,5.87
2018-05-02T08:13:42.761Z,6.37
2018-05-02T08:16:10.301Z,6.10
2018-05-02T08:18:37.844Z,5.67
2018-05-02T08:21:05.356Z,5.93
2018-05-02T08:23:32.925Z,6.73
2018-05-02T08:26:00.449Z,6.37
2018-05-02T08:28:27.970Z,6.37
2018-05-02T08:30:55.514Z,6.80
2018-05-02T08:33:23.021Z,5.53
2018-05-02T08:35:50.587Z,5.83
2018-05-02T08:38:18.122Z,6.07
2018-05-02T08:40:45.656Z,6.10
2018-05-02T08:43:13.193Z,6.00
2018-05-02T08:45:40.766Z,6.40
2018-05-02T08:48:08.277Z,5.77
2018-05-02T08:50:35.815Z,5.57
2018-05-02T08:53:03.382Z,5.20
2018-05-02T08:55:30.899Z,5.30
2018-05-02T08:57:58.409Z,3.90
2018-05-02T09:00:26.002Z,4.43
2018-05-02T09:02:53.510Z,4.53
2018-05-02T09:05:21.470Z,3.93
2018-05-02T09:07:48.977Z,3.83
2018-05-02T09:10:16.510Z,4.30
2018-05-02T09:12:44.053Z,4.47
2018-05-02T09:15:11.566Z,4.77
2018-05-02T09:17:39.105Z,4.80
2018-05-02T09:20:06.632Z,4.93
2018-05-02T09:22:34.207Z,5.47
2018-05-02T09:25:01.724Z,4.27
2018-05-02T09:27:29.237Z,4.47
2018-05-02T09:29:56.969Z,3.70
2018-05-02T09:32:24.491Z,4.20
2018-05-02T09:34:52.006Z,4.00
2018-05-02T09:37:19.705Z,4.03
2018-05-02T09:39:47.217Z,3.30
2018-05-02T09:42:14.725Z,4.13
2018-05-02T09:44:42.410Z,4.10
2018-05-02T09:47:09.925Z,3.87
2018-05-02T09:49:37.433Z,3.50
2018-05-02T09:52:04.998Z,4.00
2018-05-02T09:54:32.707Z,4.87
2018-05-02T09:57:00.226Z,4.03
2018-05-02T09:59:27.744Z,3.30
2018-05-02T10:01:55.277Z,4.23
2018-05-02T10:04:23.034Z,4.10
2018-05-02T10:06:50.551Z,3.80
2018-05-02T10:09:18.077Z,3.80
2018-05-02T10:11:45.623Z,4.50
2018-05-02T10:14:13.602Z,3.80
2018-05-02T10:16:41.109Z,4.40
2018-05-02T10:19:08.626Z,3.40
2018-05-02T10:21:36.318Z,4.17
2018-05-02T10:24:03.837Z,4.20
2018-05-02T10:26:31.359Z,4.13
2018-05-02T10:28:58.898Z,3.10
2018-05-02T10:31:26.877Z,4.00
2018-05-02T10:33:54.398Z,2.97
2018-05-02T10:36:21.919Z,3.70
2018-05-02T10:38:49.473Z,3.20
2018-05-02T10:41:16.997Z,3.20
2018-05-02T10:43:44.536Z,3.63
2018-05-02T10:46:12.107Z,3.40
2018-05-02T10:48:39.626Z,3.30
2018-05-02T10:51:07.138Z,3.10
2018-05-02T10:53:34.673Z,3.37
2018-05-02T10:56:02.229Z,3.03
2018-05-02T10:58:29.774Z,2.77
2018-05-02T11:00:57.290Z,2.90
2018-05-02T11:03:24.801Z,3.27
2018-05-02T11:05:52.739Z,3.00
2018-05-02T11:08:20.257Z,3.00
2018-05-02T11:10:47.770Z,2.63
2018-05-02T11:13:15.458Z,3.03
2018-05-02T11:15:42.972Z,3.23
2018-05-02T11:18:10.526Z,3.73
2018-05-02T11:20:38.090Z,4.13
2018-05-02T11:23:05.602Z,2.97
2018-05-02T11:25:33.118Z,2.90
2018-05-02T11:28:00.669Z,3.53
2018-05-02T11:30:28.191Z,3.00
2018-05-02T11:32:55.946Z,2.87
2018-05-02T11:35:23.468Z,2.93
2018-05-02T11:37:50.996Z,2.03
2018-05-02T11:40:18.538Z,2.73
2018-05-02T11:42:46.234Z,3.30
2018-05-02T11:45:13.754Z,3.13
2018-05-02T11:47:41.282Z,2.90
2018-05-02T11:50:08.822Z,3.30
2018-05-02T11:52:36.338Z,2.93
2018-05-02T11:55:03.899Z,3.70
2018-05-02T11:57:31.431Z,3.30
2018-05-02T11:59:58.969Z,2.80
2018-05-02T12:02:26.478Z,2.90
2018-05-02T12:04:54.017Z,3.27
2018-05-02T12:07:21.529Z,3.60
2018-05-02T12:09:49.046Z,3.90
2018-05-02T12:12:16.590Z,3.20
2018-05-02T12:14:44.123Z,3.70
2018-05-02T12:17:11.644Z,3.30
2018-05-02T12:19:39.216Z,3.87
2018-05-02T12:22:06.743Z,3.43
2018-05-02T12:24:34.280Z,3.50
2018-05-02T12:27:02.043Z,3.50
2018-05-02T12:29:29.562Z,4.30
2018-05-02T12:31:57.087Z,3.40
2018-05-02T12:34:25.066Z,3.70
2018-05-02T12:36:52.594Z,3.00
2018-05-02T12:39:20.106Z,3.63
2018-05-02T12:41:47.651Z,3.40
2018-05-02T12:44:15.511Z,3.50
2018-05-02T12:46:43.122Z,4.73
2018-05-02T12:49:10.639Z,3.43
2018-05-02T12:51:38.390Z,4.50
2018-05-02T12:54:05.917Z,3.77
2018-05-02T12:56:33.430Z,3.87
2018-05-02T12:59:00.969Z,3.80
2018-05-02T13:01:28.597Z,3.37
2018-05-02T13:03:56.119Z,4.17
2018-05-02T13:06:23.638Z,4.30
2018-05-02T13:08:51.177Z,3.80
2018-05-02T13:11:19.091Z,4.17
2018-05-02T13:13:46.606Z,3.73
2018-05-02T13:16:14.125Z,3.87
2018-05-02T13:18:41.660Z,4.10
2018-05-02T13:21:09.216Z,3.67
2018-05-02T13:23:36.726Z,4.00
2018-05-02T13:26:04.260Z,4.70
2018-05-02T13:28:31.782Z,3.90
2018-05-02T13:30:59.425Z,3.67
2018-05-02T13:33:26.945Z,4.30
2018-05-02T13:35:54.453Z,3.60
2018-05-02T13:38:21.984Z,4.63
2018-05-02T13:40:49.502Z,4.33
2018-05-02T13:43:17.158Z,5.03
2018-05-02T13:45:44.665Z,4.97
2018-05-02T13:48:12.191Z,4.90
2018-05-02T13:50:39.757Z,4.27
2018-05-02T13:53:07.267Z,4.00
2018-05-02T13:55:34.878Z,3.53
2018-05-02T13:58:02.353Z,3.90
2018-05-02T14:00:29.871Z,3.10
2018-05-02T14:02:57.382Z,3.37
2018-05-02T14:05:24.953Z,3.10
2018-05-02T14:07:52.465Z,3.73
2018-05-02T14:10:19.969Z,2.60
2018-05-02T14:12:47.514Z,3.30
2018-05-02T14:15:15.019Z,3.53
2018-05-02T14:17:42.591Z,4.67
2018-05-02T14:20:10.105Z,3.67
2018-05-02T14:22:37.635Z,3.30
2018-05-02T14:25:05.178Z,3.50
2018-05-02T14:27:32.693Z,3.57
2018-05-02T14:30:00.220Z,3.00
2018-05-02T14:32:27.757Z,3.33
2018-05-02T14:34:55.280Z,2.93
2018-05-02T14:37:22.822Z,3.77
2018-05-02T14:39:50.329Z,3.40
2018-05-02T14:42:17.902Z,4.60
2018-05-02T14:44:45.418Z,4.10
2018-05-02T14:47:12.933Z,4.73
2018-05-02T14:49:40.674Z,4.37
2018-05-02T14:52:08.189Z,4.10
2018-05-02T14:54:35.753Z,4.40
2018-05-02T14:57:03.328Z,4.97
2018-05-02T14:59:30.850Z,5.13
2018-05-02T15:01:58.424Z,5.60
2018-05-02T15:04:25.970Z,5.80
2018-05-02T15:06:53.497Z,5.67
2018-05-02T15:09:21.010Z,5.40
2018-05-02T15:11:48.597Z,5.73
2018-05-02T15:14:16.114Z,6.60
2018-05-02T15:16:43.635Z,5.90
2018-05-02T15:19:11.353Z,5.87
2018-05-02T15:21:38.857Z,4.90
2018-05-02T15:24:06.366Z,5.73
2018-05-02T15:26:33.893Z,4.20
2018-05-02T15:29:01.411Z,4.43
2018-05-02T15:31:28.950Z,5.50
2018-05-02T15:33:56.470Z,5.67
2018-05-02T15:36:24.361Z,5.07
2018-05-02T15:38:51.878Z,5.10
2018-05-02T15:41:19.388Z,4.10
2018-05-02T15:43:46.922Z,4.30
2018-05-02T15:46:14.433Z,4.30
2018-05-02T15:48:42.000Z,4.50
2018-05-02T15:51:09.519Z,3.93
2018-05-02T15:53:37.025Z,4.10
2018-05-02T15:56:04.576Z,5.40
2018-05-02T15:58:32.202Z,4.30
2018-05-02T16:01:00.194Z,4.30
2018-05-02T16:03:27.844Z,4.33
2018-05-02T16:05:55.748Z,5.17
2018-05-02T16:08:23.602Z,3.93
2018-05-02T16:10:51.131Z,4.43
2018-05-02T16:13:18.702Z,4.37
2018-05-02T16:15:46.326Z,4.10
2018-05-02T16:18:13.928Z,3.70
2018-05-02T16:20:41.474Z,5.57
2018-05-02T16:23:09.434Z,3.63
2018-05-02T16:25:36.954Z,4.70
2018-05-02T16:28:04.495Z,4.00
2018-05-02T16:30:32.110Z,4.30
2018-05-02T16:32:59.677Z,4.20
2018-05-02T16:35:27.255Z,4.30
2018-05-02T16:37:54.798Z,4.10
2018-05-02T16:40:22.318Z,4.00
2018-05-02T16:42:49.853Z,4.40
2018-05-02T16:45:17.546Z,4.27
2018-05-02T16:47:45.066Z,4.00
2018-05-02T16:50:12.582Z,3.90
2018-05-02T16:52:40.127Z,3.93
2018-05-02T16:55:07.655Z,3.20
2018-05-02T16:57:35.276Z,4.23
2018-05-02T17:00:02.810Z,4.00
2018-05-02T17:02:30.387Z,5.90
2018-05-02T17:04:58.047Z,5.50
2018-05-02T17:07:25.578Z,4.20
2018-05-02T17:09:53.097Z,4.57
2018-05-02T17:12:21.046Z,4.90
2018-05-02T17:14:48.569Z,5.03
2018-05-02T17:17:16.089Z,4.00
2018-05-02T17:19:43.698Z,4.10
2018-05-02T17:22:11.322Z,4.33
2018-05-02T17:24:38.851Z,4.03
2018-05-02T17:27:06.480Z,4.07
2018-05-02T17:29:34.001Z,3.60
2018-05-02T17:32:01.524Z,4.23
2018-05-02T17:34:29.067Z,4.33
2018-05-02T17:36:56.594Z,4.77
2018-05-02T17:39:24.129Z,4.13
2018-05-02T17:41:51.679Z,4.83
2018-05-02T17:44:19.394Z,4.70
2018-05-02T17:46:47.886Z,4.00
2018-05-02T17:49:15.429Z,4.70
2018-05-02T17:51:43.068Z,4.33
2018-05-02T17:54:10.632Z,4.20
2018-05-02T17:56:38.228Z,4.37
2018-05-02T17:59:05.798Z,4.10
2018-05-02T18:01:33.493Z,4.53
2018-05-02T18:04:01.335Z,3.77
2018-05-02T18:06:29.102Z,3.97
2018-05-02T18:08:56.618Z,4.10
2018-05-02T18:11:24.140Z,4.67
2018-05-02T18:14:02.346Z,4.07
2018-05-02T18:16:30.878Z,4.23
2018-05-02T18:18:58.539Z,4.73
2018-05-02T18:21:26.407Z,4.70
2018-05-02T18:23:53.921Z,5.10
2018-05-02T18:26:22.362Z,4.63
2018-05-02T18:28:49.905Z,4.93
2018-05-02T18:31:17.443Z,4.03
2018-05-02T18:33:45.017Z,3.90
2018-05-02T18:36:12.533Z,4.27
2018-05-02T18:38:40.059Z,4.47
2018-05-02T18:41:07.633Z,4.60
2018-05-02T18:43:35.153Z,4.10
2018-05-02T18:46:02.667Z,4.47
2018-05-02T18:48:30.214Z,4.70
2018-05-02T18:50:57.910Z,4.33
2018-05-02T18:53:25.423Z,4.43
2018-05-02T18:55:52.986Z,4.93
2018-05-02T18:58:21.038Z,4.17
2018-05-02T19:00:48.555Z,4.50
2018-05-02T19:03:16.126Z,4.67
2018-05-02T19:05:44.153Z,4.70
2018-05-02T19:08:11.778Z,5.33
2018-05-02T19:10:39.325Z,4.87
2018-05-02T19:13:06.857Z,5.33
2018-05-02T19:15:34.725Z,4.67
2018-05-02T19:18:07.676Z,4.53
2018-05-02T19:20:35.925Z,4.93
2018-05-02T19:23:03.581Z,5.07
2018-05-02T19:25:36.913Z,5.57
2018-05-02T19:28:04.494Z,4.77
2018-05-02T19:30:32.006Z,5.77
2018-05-02T19:33:05.053Z,5.43
2018-05-02T19:35:32.637Z,5.40
2018-05-02T19:38:00.113Z,6.10
2018-05-02T19:40:33.243Z,5.10
2018-05-02T19:43:06.390Z,5.10
2018-05-02T19:45:34.381Z,5.70
2018-05-02T19:48:02.053Z,5.97
2018-05-02T19:50:29.581Z,7.03
2018-05-02T19:52:57.136Z,6.77
2018-05-02T19:55:24.682Z,5.47
2018-05-02T19:57:52.208Z,6.27
2018-05-02T20:00:25.490Z,6.07
2018-05-02T20:02:58.897Z,6.00
2018-05-02T20:05:26.786Z,5.97
2018-05-02T20:07:54.297Z,5.67
2018-05-02T20:10:27.470Z,5.03
2018-05-02T20:13:00.634Z,5.10
2018-05-02T20:15:28.172Z,5.37
2018-05-02T20:17:55.758Z,5.47
2018-05-02T20:20:23.312Z,5.60
2018-05-02T20:22:51.278Z,5.73
2018-05-02T20:25:18.879Z,5.80
2018-05-02T20:27:46.699Z,5.63
2018-05-02T20:30:14.225Z,6.00
2018-05-02T20:32:41.733Z,5.43
2018-05-02T20:35:09.455Z,5.80
2018-05-02T20:37:36.974Z,5.10
2018-05-02T20:40:04.525Z,6.17
2018-05-02T20:42:32.269Z,5.53
2018-05-02T20:44:59.785Z,5.20
2018-05-02T20:47:27.303Z,6.00
2018-05-02T20:49:54.849Z,5.87
2018-05-02T20:52:22.390Z,6.00
2018-05-02T20:54:49.982Z,6.10
2018-05-02T20:57:17.485Z,5.77
2018-05-02T20:59:45.649Z,5.93
2018-05-02T21:02:13.198Z,5.43
2018-05-02T21:04:40.809Z,4.63
2018-05-02T21:07:08.353Z,5.97
2018-05-02T21:09:35.936Z,5.83
2018-05-02T21:12:03.454Z,5.50
2018-05-02T21:14:31.021Z,5.10
2018-05-02T21:16:59.001Z,4.90
2018-05-02T21:19:26.555Z,6.17
2018-05-02T21:21:54.436Z,5.13
2018-05-02T21:24:22.014Z,5.70
2018-05-02T21:26:49.541Z,5.70
2018-05-02T21:29:17.078Z,5.10
2018-05-02T21:31:44.624Z,4.77
2018-05-02T21:34:12.158Z,4.80
2018-05-02T21:36:39.733Z,4.50
2018-05-02T21:39:07.321Z,4.87
2018-05-02T21:41:34.853Z,4.40
2018-05-02T21:44:02.415Z,4.90
2018-05-02T21:46:30.086Z,4.87
2018-05-02T21:48:57.611Z,4.30
2018-05-02T21:51:25.123Z,4.10
2018-05-02T21:53:53.111Z,4.57
2018-05-02T21:56:20.630Z,4.33
2018-05-02T21:58:48.150Z,5.33
2018-05-02T22:01:15.711Z,4.93
2018-05-02T22:03:43.606Z,4.67
2018-05-02T22:06:11.120Z,4.03
2018-05-02T22:08:38.638Z,3.90
2018-05-02T22:11:06.202Z,3.80
2018-05-02T22:13:33.722Z,4.00
2018-05-02T22:16:01.364Z,4.17
2018-05-02T22:18:28.907Z,4.00
2018-05-02T22:20:56.427Z,3.87
2018-05-02T22:23:23.997Z,4.20
2018-05-02T22:25:51.509Z,3.83
2018-05-02T22:28:19.026Z,4.67
2018-05-02T22:30:46.567Z,3.80
2018-05-02T22:33:14.101Z,4.50
2018-05-02T22:35:41.633Z,4.40
2018-05-02T22:38:09.146Z,4.47
2018-05-02T22:40:36.776Z,4.83
2018-05-02T22:43:04.381Z,5.37
2018-05-02T22:45:32.294Z,5.40
2018-05-02T22:47:59.886Z,5.53
2018-05-02T22:50:27.397Z,5.13
2018-05-02T22:52:55.390Z,5.77
2018-05-02T22:55:22.915Z,7.13
2018-05-02T22:57:50.565Z,6.60
2018-05-02T23:00:18.149Z,5.10
2018-05-02T23:02:45.685Z,5.10
2018-05-02T23:05:13.211Z,5.63
2018-05-02T23:07:40.763Z,6.07
2018-05-02T23:10:08.497Z,5.60
2018-05-02T23:12:36.018Z,8.20
2018-05-02T23:15:03.541Z,6.67
2018-05-02T23:17:31.086Z,6.43
2018-05-02T23:19:58.886Z,6.00
2018-05-02T23:22:26.414Z,7.47
2018-05-02T23:24:53.930Z,7.17
2018-05-02T23:27:21.473Z,7.07
2018-05-02T23:29:49.010Z,7.80
2018-05-02T23:32:16.575Z,7.80
2018-05-02T23:34:44.146Z,7.93
2018-05-02T23:37:11.681Z,8.40
2018-05-02T23:39:39.198Z,7.90
2018-05-02T23:42:06.742Z,7.77
2018-05-02T23:44:34.290Z,7.80
2018-05-02T23:47:01.805Z,8.83
2018-05-02T23:49:29.345Z,8.40
2018-05-02T23:51:56.867Z,8.87
2018-05-02T23:54:24.611Z,9.50
2018-05-02T23:56:52.127Z,9.20
2018-05-02T23:59:19.646Z,9.77
